sensor_id;sensor_type;location;lat;lon;timestamp;temperature;humidity
52879;DHT22;38747;53.140;6.498;2023-11-19T00:00:17;10.40;99.90
52879;DHT22;38747;53.140;6.498;2023-11-19T00:02:43;10.50;99.90
52879;DHT22;38747;53.140;6.498;2023-11-19T00:05:09;10.50;99.90
52879;DHT22;38747;53.140;6.498;2023-11-19T00:07:37;10.60;99.90
52879;DHT22;38747;53.140;6.498;2023-11-19T00:10:07;10.60;99.90
52879;DHT22;38747;53.140;6.498;2023-11-19T00:12:35;10.60;99.90
52879;DHT22;38747;53.140;6.498;2023-11-19T00:15:01;10.70;99.90
52879;DHT22;38747;53.140;6.498;2023-11-19T00:17:26;10.70;99.90
52879;DHT22;38747;53.140;6.498;2023-11-19T00:19:52;10.80;99.90
52879;DHT22;38747;53.140;6.498;2023-11-19T00:22:18;10.90;99.90
52879;DHT22;38747;53.140;6.498;2023-11-19T00:24:43;10.90;99.90
52879;DHT22;38747;53.140;6.498;2023-11-19T00:27:10;11.00;99.90
52879;DHT22;38747;53.140;6.498;2023-11-19T00:29:35;11.00;99.90
52879;DHT22;38747;53.140;6.498;2023-11-19T00:32:01;11.00;99.90
52879;DHT22;38747;53.140;6.498;2023-11-19T00:34:27;11.00;99.90
52879;DHT22;38747;53.140;6.498;2023-11-19T00:36:52;11.00;99.90
52879;DHT22;38747;53.140;6.498;2023-11-19T00:39:20;11.10;99.90
52879;DHT22;38747;53.140;6.498;2023-11-19T00:41:46;11.00;99.90
52879;DHT22;38747;53.140;6.498;2023-11-19T00:44:12;11.00;99.90
52879;DHT22;38747;53.140;6.498;2023-11-19T00:46:38;11.10;99.90
52879;DHT22;38747;53.140;6.498;2023-11-19T00:49:03;11.10;99.90
52879;DHT22;38747;53.140;6.498;2023-11-19T00:51:29;11.20;99.90
52879;DHT22;38747;53.140;6.498;2023-11-19T00:53:57;11.20;99.90
52879;DHT22;38747;53.140;6.498;2023-11-19T00:56:22;11.20;99.90
52879;DHT22;38747;53.140;6.498;2023-11-19T00:58:48;11.10;99.90
52879;DHT22;38747;53.140;6.498;2023-11-19T01:01:14;11.10;99.90
52879;DHT22;38747;53.140;6.498;2023-11-19T01:03:39;11.20;99.90
52879;DHT22;38747;53.140;6.498;2023-11-19T01:06:05;11.10;99.90
52879;DHT22;38747;53.140;6.498;2023-11-19T01:08:31;11.20;99.90
52879;DHT22;38747;53.140;6.498;2023-11-19T01:10:56;11.20;99.90
52879;DHT22;38747;53.140;6.498;2023-11-19T01:13:22;11.20;99.90
52879;DHT22;38747;53.140;6.498;2023-11-19T01:15:50;11.20;99.90
52879;DHT22;38747;53.140;6.498;2023-11-19T01:18:16;11.30;99.90
52879;DHT22;38747;53.140;6.498;2023-11-19T01:20:42;11.20;99.90
52879;DHT22;38747;53.140;6.498;2023-11-19T01:23:07;11.20;99.90
52879;DHT22;38747;53.140;6.498;2023-11-19T01:25:33;11.20;99.90
52879;DHT22;38747;53.140;6.498;2023-11-19T01:27:59;11.30;99.90
52879;DHT22;38747;53.140;6.498;2023-11-19T01:30:25;11.20;99.90
52879;DHT22;38747;53.140;6.498;2023-11-19T01:32:51;11.30;99.90
52879;DHT22;38747;53.140;6.498;2023-11-19T01:35:16;11.30;99.90
52879;DHT22;38747;53.140;6.498;2023-11-19T01:37:42;11.20;99.90
52879;DHT22;38747;53.140;6.498;2023-11-19T01:40:08;11.30;99.90
52879;DHT22;38747;53.140;6.498;2023-11-19T01:42:37;11.20;99.90
52879;DHT22;38747;53.140;6.498;2023-11-19T01:45:04;11.30;99.90
52879;DHT22;38747;53.140;6.498;2023-11-19T01:47:33;11.20;99.90
52879;DHT22;38747;53.140;6.498;2023-11-19T01:50:00;11.20;99.90
52879;DHT22;38747;53.140;6.498;2023-11-19T01:52:27;11.20;99.90
52879;DHT22;38747;53.140;6.498;2023-11-19T01:54:53;11.20;99.90
52879;DHT22;38747;53.140;6.498;2023-11-19T01:57:21;11.20;99.90
52879;DHT22;38747;53.140;6.498;2023-11-19T01:59:49;11.20;99.90
52879;DHT22;38747;53.140;6.498;2023-11-19T02:02:16;11.20;99.90
52879;DHT22;38747;53.140;6.498;2023-11-19T02:04:49;11.20;99.90
52879;DHT22;38747;53.140;6.498;2023-11-19T02:07:15;11.20;99.90
52879;DHT22;38747;53.140;6.498;2023-11-19T02:09:43;11.20;99.90
52879;DHT22;38747;53.140;6.498;2023-11-19T02:12:10;11.20;99.90
52879;DHT22;38747;53.140;6.498;2023-11-19T02:14:37;11.20;99.90
52879;DHT22;38747;53.140;6.498;2023-11-19T02:17:03;11.20;99.90
52879;DHT22;38747;53.140;6.498;2023-11-19T02:19:29;11.10;99.90
52879;DHT22;38747;53.140;6.498;2023-11-19T02:21:55;11.10;99.90
52879;DHT22;38747;53.140;6.498;2023-11-19T02:24:22;11.10;99.90
52879;DHT22;38747;53.140;6.498;2023-11-19T02:26:59;11.10;99.90
52879;DHT22;38747;53.140;6.498;2023-11-19T02:29:26;11.20;99.90
52879;DHT22;38747;53.140;6.498;2023-11-19T02:31:52;11.20;99.90
52879;DHT22;38747;53.140;6.498;2023-11-19T02:34:20;11.20;99.90
52879;DHT22;38747;53.140;6.498;2023-11-19T02:36:47;11.10;99.90
52879;DHT22;38747;53.140;6.498;2023-11-19T02:39:12;11.10;99.90
52879;DHT22;38747;53.140;6.498;2023-11-19T02:41:39;11.20;99.90
52879;DHT22;38747;53.140;6.498;2023-11-19T02:44:06;11.20;99.90
52879;DHT22;38747;53.140;6.498;2023-11-19T02:46:32;11.20;99.90
52879;DHT22;38747;53.140;6.498;2023-11-19T02:48:57;11.20;99.90
52879;DHT22;38747;53.140;6.498;2023-11-19T02:51:23;11.20;99.90
52879;DHT22;38747;53.140;6.498;2023-11-19T02:53:49;11.20;99.90
52879;DHT22;38747;53.140;6.498;2023-11-19T02:56:14;11.20;99.90
52879;DHT22;38747;53.140;6.498;2023-11-19T02:58:51;11.20;99.90
52879;DHT22;38747;53.140;6.498;2023-11-19T03:01:26;11.20;99.90
52879;DHT22;38747;53.140;6.498;2023-11-19T03:04:00;11.20;99.90
52879;DHT22;38747;53.140;6.498;2023-11-19T03:06:27;11.20;99.90
52879;DHT22;38747;53.140;6.498;2023-11-19T03:08:54;11.20;99.90
52879;DHT22;38747;53.140;6.498;2023-11-19T03:11:23;11.20;99.90
52879;DHT22;38747;53.140;6.498;2023-11-19T03:13:50;11.20;99.90
52879;DHT22;38747;53.140;6.498;2023-11-19T03:16:15;11.20;99.90
52879;DHT22;38747;53.140;6.498;2023-11-19T03:18:42;11.20;99.90
52879;DHT22;38747;53.140;6.498;2023-11-19T03:21:08;11.20;99.90
52879;DHT22;38747;53.140;6.498;2023-11-19T03:23:34;11.20;99.90
52879;DHT22;38747;53.140;6.498;2023-11-19T03:26:00;11.10;99.90
52879;DHT22;38747;53.140;6.498;2023-11-19T03:28:29;11.20;99.90
52879;DHT22;38747;53.140;6.498;2023-11-19T03:30:54;11.10;99.90
52879;DHT22;38747;53.140;6.498;2023-11-19T03:33:20;11.10;99.90
52879;DHT22;38747;53.140;6.498;2023-11-19T03:35:46;11.10;99.90
52879;DHT22;38747;53.140;6.498;2023-11-19T03:38:12;11.20;99.90
52879;DHT22;38747;53.140;6.498;2023-11-19T03:40:38;11.20;99.90
52879;DHT22;38747;53.140;6.498;2023-11-19T03:43:04;11.20;99.90
52879;DHT22;38747;53.140;6.498;2023-11-19T03:45:30;11.20;99.90
52879;DHT22;38747;53.140;6.498;2023-11-19T03:47:56;11.10;99.90
52879;DHT22;38747;53.140;6.498;2023-11-19T03:50:21;11.10;99.90
52879;DHT22;38747;53.140;6.498;2023-11-19T03:52:48;11.10;99.90
52879;DHT22;38747;53.140;6.498;2023-11-19T03:55:13;11.10;99.90
52879;DHT22;38747;53.140;6.498;2023-11-19T03:57:39;11.10;99.90
52879;DHT22;38747;53.140;6.498;2023-11-19T04:00:05;11.00;99.90
52879;DHT22;38747;53.140;6.498;2023-11-19T04:02:40;11.10;99.90
52879;DHT22;38747;53.140;6.498;2023-11-19T04:05:06;11.10;99.90
52879;DHT22;38747;53.140;6.498;2023-11-19T04:07:32;11.10;99.90
52879;DHT22;38747;53.140;6.498;2023-11-19T04:09:58;11.10;99.90
52879;DHT22;38747;53.140;6.498;2023-11-19T04:12:23;11.00;99.90
52879;DHT22;38747;53.140;6.498;2023-11-19T04:14:49;11.00;99.90
52879;DHT22;38747;53.140;6.498;2023-11-19T04:17:15;11.00;99.90
52879;DHT22;38747;53.140;6.498;2023-11-19T04:19:40;11.00;99.90
52879;DHT22;38747;53.140;6.498;2023-11-19T04:22:07;11.00;99.90
52879;DHT22;38747;53.140;6.498;2023-11-19T04:24:34;10.90;99.90
52879;DHT22;38747;53.140;6.498;2023-11-19T04:27:00;10.90;99.90
52879;DHT22;38747;53.140;6.498;2023-11-19T04:29:25;10.90;99.90
52879;DHT22;38747;53.140;6.498;2023-11-19T04:31:51;10.90;99.90
52879;DHT22;38747;53.140;6.498;2023-11-19T04:34:16;10.90;99.90
52879;DHT22;38747;53.140;6.498;2023-11-19T04:36:42;10.90;99.90
52879;DHT22;38747;53.140;6.498;2023-11-19T04:39:09;10.90;99.90
52879;DHT22;38747;53.140;6.498;2023-11-19T04:41:35;11.00;99.90
52879;DHT22;38747;53.140;6.498;2023-11-19T04:44:01;10.90;99.90
52879;DHT22;38747;53.140;6.498;2023-11-19T04:46:27;11.00;99.90
52879;DHT22;38747;53.140;6.498;2023-11-19T04:48:53;11.00;99.90
52879;DHT22;38747;53.140;6.498;2023-11-19T04:51:18;11.10;99.90
52879;DHT22;38747;53.140;6.498;2023-11-19T04:53:44;11.10;99.90
52879;DHT22;38747;53.140;6.498;2023-11-19T04:56:11;11.10;99.90
52879;DHT22;38747;53.140;6.498;2023-11-19T04:58:36;11.00;99.90
52879;DHT22;38747;53.140;6.498;2023-11-19T05:01:03;11.00;99.90
52879;DHT22;38747;53.140;6.498;2023-11-19T05:03:30;11.00;99.90
52879;DHT22;38747;53.140;6.498;2023-11-19T05:05:57;11.00;99.90
52879;DHT22;38747;53.140;6.498;2023-11-19T05:08:22;11.00;99.90
52879;DHT22;38747;53.140;6.498;2023-11-19T05:10:48;11.00;99.90
52879;DHT22;38747;53.140;6.498;2023-11-19T05:13:14;11.00;99.90
52879;DHT22;38747;53.140;6.498;2023-11-19T05:15:40;10.90;99.90
52879;DHT22;38747;53.140;6.498;2023-11-19T05:18:06;11.00;99.90
52879;DHT22;38747;53.140;6.498;2023-11-19T05:20:31;10.90;99.90
52879;DHT22;38747;53.140;6.498;2023-11-19T05:22:57;11.00;99.90
52879;DHT22;38747;53.140;6.498;2023-11-19T05:25:26;10.90;99.90
52879;DHT22;38747;53.140;6.498;2023-11-19T05:27:52;11.00;99.90
52879;DHT22;38747;53.140;6.498;2023-11-19T05:30:18;11.00;99.90
52879;DHT22;38747;53.140;6.498;2023-11-19T05:32:43;11.00;99.90
52879;DHT22;38747;53.140;6.498;2023-11-19T05:35:09;11.00;99.90
52879;DHT22;38747;53.140;6.498;2023-11-19T05:37:34;11.00;99.90
52879;DHT22;38747;53.140;6.498;2023-11-19T05:40:00;11.00;99.90
52879;DHT22;38747;53.140;6.498;2023-11-19T05:42:28;11.00;99.90
52879;DHT22;38747;53.140;6.498;2023-11-19T05:44:54;11.10;99.90
52879;DHT22;38747;53.140;6.498;2023-11-19T05:47:19;11.10;99.90
52879;DHT22;38747;53.140;6.498;2023-11-19T05:49:45;11.10;99.90
52879;DHT22;38747;53.140;6.498;2023-11-19T05:52:10;11.10;99.90
52879;DHT22;38747;53.140;6.498;2023-11-19T05:54:38;11.10;99.90
52879;DHT22;38747;53.140;6.498;2023-11-19T05:57:07;11.10;99.90
52879;DHT22;38747;53.140;6.498;2023-11-19T05:59:36;11.00;99.90
52879;DHT22;38747;53.140;6.498;2023-11-19T06:02:02;11.00;99.90
52879;DHT22;38747;53.140;6.498;2023-11-19T06:04:28;11.00;99.90
52879;DHT22;38747;53.140;6.498;2023-11-19T06:06:54;11.00;99.90
52879;DHT22;38747;53.140;6.498;2023-11-19T06:09:22;11.00;99.90
52879;DHT22;38747;53.140;6.498;2023-11-19T06:11:51;11.00;99.90
52879;DHT22;38747;53.140;6.498;2023-11-19T06:14:18;11.00;99.90
52879;DHT22;38747;53.140;6.498;2023-11-19T06:16:44;11.00;99.90
52879;DHT22;38747;53.140;6.498;2023-11-19T06:19:09;10.90;99.90
52879;DHT22;38747;53.140;6.498;2023-11-19T06:21:36;10.90;99.90
52879;DHT22;38747;53.140;6.498;2023-11-19T06:24:02;10.90;99.90
52879;DHT22;38747;53.140;6.498;2023-11-19T06:26:28;10.90;99.90
52879;DHT22;38747;53.140;6.498;2023-11-19T06:28:54;10.90;99.90
52879;DHT22;38747;53.140;6.498;2023-11-19T06:31:20;10.90;99.90
52879;DHT22;38747;53.140;6.498;2023-11-19T06:33:46;10.90;99.90
52879;DHT22;38747;53.140;6.498;2023-11-19T06:36:14;10.80;99.90
52879;DHT22;38747;53.140;6.498;2023-11-19T06:38:42;10.90;99.90
52879;DHT22;38747;53.140;6.498;2023-11-19T06:41:08;10.80;99.90
52879;DHT22;38747;53.140;6.498;2023-11-19T06:43:37;10.80;99.90
52879;DHT22;38747;53.140;6.498;2023-11-19T06:46:03;10.80;99.90
52879;DHT22;38747;53.140;6.498;2023-11-19T06:48:32;10.90;99.90
52879;DHT22;38747;53.140;6.498;2023-11-19T06:50:57;10.90;99.90
52879;DHT22;38747;53.140;6.498;2023-11-19T06:53:23;10.80;99.90
52879;DHT22;38747;53.140;6.498;2023-11-19T06:55:48;10.80;99.90
52879;DHT22;38747;53.140;6.498;2023-11-19T06:58:14;10.80;99.90
52879;DHT22;38747;53.140;6.498;2023-11-19T07:00:40;10.80;99.90
52879;DHT22;38747;53.140;6.498;2023-11-19T07:03:06;10.70;99.90
52879;DHT22;38747;53.140;6.498;2023-11-19T07:05:36;10.70;99.90
52879;DHT22;38747;53.140;6.498;2023-11-19T07:08:04;10.70;99.90
52879;DHT22;38747;53.140;6.498;2023-11-19T07:10:29;10.70;99.90
52879;DHT22;38747;53.140;6.498;2023-11-19T07:12:56;10.70;99.90
52879;DHT22;38747;53.140;6.498;2023-11-19T07:15:21;10.70;99.90
52879;DHT22;38747;53.140;6.498;2023-11-19T07:17:47;10.70;99.90
52879;DHT22;38747;53.140;6.498;2023-11-19T07:20:13;10.70;99.90
52879;DHT22;38747;53.140;6.498;2023-11-19T07:22:43;10.70;99.90
52879;DHT22;38747;53.140;6.498;2023-11-19T07:25:12;10.70;99.90
52879;DHT22;38747;53.140;6.498;2023-11-19T07:27:38;10.70;99.90
52879;DHT22;38747;53.140;6.498;2023-11-19T07:30:05;10.60;99.90
52879;DHT22;38747;53.140;6.498;2023-11-19T07:32:33;10.60;99.90
52879;DHT22;38747;53.140;6.498;2023-11-19T07:34:58;10.70;99.90
52879;DHT22;38747;53.140;6.498;2023-11-19T07:37:28;10.70;99.90
52879;DHT22;38747;53.140;6.498;2023-11-19T07:39:53;10.70;99.90
52879;DHT22;38747;53.140;6.498;2023-11-19T07:42:19;10.70;99.90
52879;DHT22;38747;53.140;6.498;2023-11-19T07:44:45;10.70;99.90
52879;DHT22;38747;53.140;6.498;2023-11-19T07:47:11;10.70;99.90
52879;DHT22;38747;53.140;6.498;2023-11-19T07:49:38;10.60;99.90
52879;DHT22;38747;53.140;6.498;2023-11-19T07:52:04;10.60;99.90
52879;DHT22;38747;53.140;6.498;2023-11-19T07:54:30;10.50;99.90
52879;DHT22;38747;53.140;6.498;2023-11-19T07:56:56;10.60;99.90
52879;DHT22;38747;53.140;6.498;2023-11-19T07:59:21;10.60;99.90
52879;DHT22;38747;53.140;6.498;2023-11-19T08:01:47;10.60;99.90
52879;DHT22;38747;53.140;6.498;2023-11-19T08:04:13;10.70;99.90
52879;DHT22;38747;53.140;6.498;2023-11-19T08:06:39;10.80;99.90
52879;DHT22;38747;53.140;6.498;2023-11-19T08:09:05;10.80;99.90
52879;DHT22;38747;53.140;6.498;2023-11-19T08:11:32;10.80;99.90
52879;DHT22;38747;53.140;6.498;2023-11-19T08:13:57;10.80;99.90
52879;DHT22;38747;53.140;6.498;2023-11-19T08:16:23;10.90;99.90
52879;DHT22;38747;53.140;6.498;2023-11-19T08:18:49;10.90;99.90
52879;DHT22;38747;53.140;6.498;2023-11-19T08:21:14;10.90;99.90
52879;DHT22;38747;53.140;6.498;2023-11-19T08:23:40;11.00;99.90
52879;DHT22;38747;53.140;6.498;2023-11-19T08:26:06;11.00;99.90
52879;DHT22;38747;53.140;6.498;2023-11-19T08:28:31;11.00;99.90
52879;DHT22;38747;53.140;6.498;2023-11-19T08:30:59;11.00;99.90
52879;DHT22;38747;53.140;6.498;2023-11-19T08:33:26;11.00;99.90
52879;DHT22;38747;53.140;6.498;2023-11-19T08:35:51;11.00;99.90
52879;DHT22;38747;53.140;6.498;2023-11-19T08:38:17;11.00;99.90
52879;DHT22;38747;53.140;6.498;2023-11-19T08:40:42;10.90;99.90
52879;DHT22;38747;53.140;6.498;2023-11-19T08:43:08;10.90;99.90
52879;DHT22;38747;53.140;6.498;2023-11-19T08:45:34;10.90;99.90
52879;DHT22;38747;53.140;6.498;2023-11-19T08:47:59;10.80;99.90
52879;DHT22;38747;53.140;6.498;2023-11-19T08:50:25;10.80;99.90
52879;DHT22;38747;53.140;6.498;2023-11-19T08:52:50;10.80;99.90
52879;DHT22;38747;53.140;6.498;2023-11-19T08:55:16;10.80;99.90
52879;DHT22;38747;53.140;6.498;2023-11-19T08:57:42;10.80;99.90
52879;DHT22;38747;53.140;6.498;2023-11-19T09:00:07;10.80;99.90
52879;DHT22;38747;53.140;6.498;2023-11-19T09:02:35;10.80;99.90
52879;DHT22;38747;53.140;6.498;2023-11-19T09:05:02;10.80;99.90
52879;DHT22;38747;53.140;6.498;2023-11-19T09:07:28;10.70;99.90
52879;DHT22;38747;53.140;6.498;2023-11-19T09:09:54;10.70;99.90
52879;DHT22;38747;53.140;6.498;2023-11-19T09:12:19;10.70;99.90
52879;DHT22;38747;53.140;6.498;2023-11-19T09:14:45;10.80;99.90
52879;DHT22;38747;53.140;6.498;2023-11-19T09:17:11;10.90;99.90
52879;DHT22;38747;53.140;6.498;2023-11-19T09:19:37;11.10;99.90
52879;DHT22;38747;53.140;6.498;2023-11-19T09:22:03;11.20;99.90
52879;DHT22;38747;53.140;6.498;2023-11-19T09:24:29;11.40;99.90
52879;DHT22;38747;53.140;6.498;2023-11-19T09:26:54;11.50;99.90
52879;DHT22;38747;53.140;6.498;2023-11-19T09:29:21;11.70;99.90
52879;DHT22;38747;53.140;6.498;2023-11-19T09:31:47;11.80;99.90
52879;DHT22;38747;53.140;6.498;2023-11-19T09:34:13;11.80;99.90
52879;DHT22;38747;53.140;6.498;2023-11-19T09:36:38;11.80;99.90
52879;DHT22;38747;53.140;6.498;2023-11-19T09:39:09;11.70;99.90
52879;DHT22;38747;53.140;6.498;2023-11-19T09:41:35;11.70;99.90
52879;DHT22;38747;53.140;6.498;2023-11-19T09:44:00;11.60;99.90
52879;DHT22;38747;53.140;6.498;2023-11-19T09:46:26;11.50;99.90
52879;DHT22;38747;53.140;6.498;2023-11-19T09:48:54;11.60;99.90
52879;DHT22;38747;53.140;6.498;2023-11-19T09:51:21;11.50;99.90
52879;DHT22;38747;53.140;6.498;2023-11-19T09:53:47;11.50;99.90
52879;DHT22;38747;53.140;6.498;2023-11-19T09:56:14;11.60;99.90
52879;DHT22;38747;53.140;6.498;2023-11-19T09:58:42;11.60;99.90
52879;DHT22;38747;53.140;6.498;2023-11-19T10:01:07;11.60;99.90
52879;DHT22;38747;53.140;6.498;2023-11-19T10:03:36;11.60;99.90
52879;DHT22;38747;53.140;6.498;2023-11-19T10:06:06;11.60;99.90
52879;DHT22;38747;53.140;6.498;2023-11-19T10:08:33;11.60;99.90
52879;DHT22;38747;53.140;6.498;2023-11-19T10:10:58;11.60;99.90
52879;DHT22;38747;53.140;6.498;2023-11-19T10:13:28;11.60;99.90
52879;DHT22;38747;53.140;6.498;2023-11-19T10:15:55;11.50;99.90
52879;DHT22;38747;53.140;6.498;2023-11-19T10:18:27;11.50;99.90
52879;DHT22;38747;53.140;6.498;2023-11-19T10:20:53;11.50;99.90
52879;DHT22;38747;53.140;6.498;2023-11-19T10:23:20;11.40;99.90
52879;DHT22;38747;53.140;6.498;2023-11-19T10:25:46;11.40;99.90
52879;DHT22;38747;53.140;6.498;2023-11-19T10:28:11;11.30;99.90
52879;DHT22;38747;53.140;6.498;2023-11-19T10:30:41;11.30;99.90
52879;DHT22;38747;53.140;6.498;2023-11-19T10:33:08;11.20;99.90
52879;DHT22;38747;53.140;6.498;2023-11-19T10:35:56;11.30;99.90
52879;DHT22;38747;53.140;6.498;2023-11-19T10:38:27;11.30;99.90
52879;DHT22;38747;53.140;6.498;2023-11-19T10:40:53;11.20;99.90
52879;DHT22;38747;53.140;6.498;2023-11-19T10:43:20;11.20;99.90
52879;DHT22;38747;53.140;6.498;2023-11-19T10:45:49;11.20;99.90
52879;DHT22;38747;53.140;6.498;2023-11-19T10:48:15;11.30;99.90
52879;DHT22;38747;53.140;6.498;2023-11-19T10:50:42;11.20;99.90
52879;DHT22;38747;53.140;6.498;2023-11-19T10:53:10;11.20;99.90
52879;DHT22;38747;53.140;6.498;2023-11-19T10:55:37;11.20;99.90
52879;DHT22;38747;53.140;6.498;2023-11-19T10:58:09;11.30;99.90
52879;DHT22;38747;53.140;6.498;2023-11-19T11:03:16;11.30;99.90
52879;DHT22;38747;53.140;6.498;2023-11-19T11:05:42;11.40;99.90
52879;DHT22;38747;53.140;6.498;2023-11-19T11:08:09;11.40;99.90
52879;DHT22;38747;53.140;6.498;2023-11-19T11:10:48;11.50;99.90
52879;DHT22;38747;53.140;6.498;2023-11-19T11:13:18;11.50;99.90
52879;DHT22;38747;53.140;6.498;2023-11-19T11:15:47;11.50;99.90
52879;DHT22;38747;53.140;6.498;2023-11-19T11:18:13;11.60;99.90
52879;DHT22;38747;53.140;6.498;2023-11-19T11:20:39;11.60;99.90
52879;DHT22;38747;53.140;6.498;2023-11-19T11:31:44;11.70;99.90
52879;DHT22;38747;53.140;6.498;2023-11-19T11:34:41;11.70;99.90
52879;DHT22;38747;53.140;6.498;2023-11-19T11:37:18;11.70;99.90
52879;DHT22;38747;53.140;6.498;2023-11-19T11:39:46;11.70;99.90
52879;DHT22;38747;53.140;6.498;2023-11-19T11:45:00;11.80;99.90
52879;DHT22;38747;53.140;6.498;2023-11-19T11:47:38;11.80;99.90
52879;DHT22;38747;53.140;6.498;2023-11-19T11:50:13;11.90;99.90
52879;DHT22;38747;53.140;6.498;2023-11-19T11:57:56;11.90;99.70
52879;DHT22;38747;53.140;6.498;2023-11-19T12:02:59;11.80;99.90
52879;DHT22;38747;53.140;6.498;2023-11-19T12:05:25;11.80;99.90
52879;DHT22;38747;53.140;6.498;2023-11-19T12:07:55;12.00;99.90
52879;DHT22;38747;53.140;6.498;2023-11-19T12:10:21;12.10;99.90
52879;DHT22;38747;53.140;6.498;2023-11-19T12:12:47;12.10;99.30
52879;DHT22;38747;53.140;6.498;2023-11-19T12:15:13;12.10;99.50
52879;DHT22;38747;53.140;6.498;2023-11-19T12:17:47;12.10;99.60
52879;DHT22;38747;53.140;6.498;2023-11-19T12:20:15;12.10;99.60
52879;DHT22;38747;53.140;6.498;2023-11-19T12:22:42;12.10;98.80
52879;DHT22;38747;53.140;6.498;2023-11-19T12:25:10;12.20;98.80
52879;DHT22;38747;53.140;6.498;2023-11-19T12:27:44;12.20;98.50
52879;DHT22;38747;53.140;6.498;2023-11-19T12:30:10;12.20;97.70
52879;DHT22;38747;53.140;6.498;2023-11-19T12:32:42;12.20;96.50
52879;DHT22;38747;53.140;6.498;2023-11-19T12:35:09;12.20;99.90
52879;DHT22;38747;53.140;6.498;2023-11-19T12:37:41;12.20;98.00
52879;DHT22;38747;53.140;6.498;2023-11-19T12:40:27;12.20;99.70
52879;DHT22;38747;53.140;6.498;2023-11-19T12:42:55;12.20;98.90
52879;DHT22;38747;53.140;6.498;2023-11-19T12:45:21;12.10;97.70
52879;DHT22;38747;53.140;6.498;2023-11-19T12:47:49;12.20;98.40
52879;DHT22;38747;53.140;6.498;2023-11-19T12:50:16;12.20;99.00
52879;DHT22;38747;53.140;6.498;2023-11-19T12:52:58;12.30;99.30
52879;DHT22;38747;53.140;6.498;2023-11-19T12:55:28;12.40;98.20
52879;DHT22;38747;53.140;6.498;2023-11-19T12:57:55;12.50;98.50
52879;DHT22;38747;53.140;6.498;2023-11-19T13:00:25;12.60;97.30
52879;DHT22;38747;53.140;6.498;2023-11-19T13:02:53;12.60;97.20
52879;DHT22;38747;53.140;6.498;2023-11-19T13:05:33;12.50;94.20
52879;DHT22;38747;53.140;6.498;2023-11-19T13:08:07;12.50;94.30
52879;DHT22;38747;53.140;6.498;2023-11-19T13:10:34;12.50;93.70
52879;DHT22;38747;53.140;6.498;2023-11-19T13:13:15;12.40;94.80
52879;DHT22;38747;53.140;6.498;2023-11-19T13:15:41;12.30;96.10
52879;DHT22;38747;53.140;6.498;2023-11-19T13:18:06;12.30;94.90
52879;DHT22;38747;53.140;6.498;2023-11-19T13:20:32;12.20;95.10
52879;DHT22;38747;53.140;6.498;2023-11-19T13:23:00;12.20;96.00
52879;DHT22;38747;53.140;6.498;2023-11-19T13:25:26;12.20;97.10
52879;DHT22;38747;53.140;6.498;2023-11-19T13:27:52;12.20;96.30
52879;DHT22;38747;53.140;6.498;2023-11-19T13:30:18;12.20;97.20
52879;DHT22;38747;53.140;6.498;2023-11-19T13:32:44;12.20;96.90
52879;DHT22;38747;53.140;6.498;2023-11-19T13:35:12;12.20;97.20
52879;DHT22;38747;53.140;6.498;2023-11-19T13:37:38;12.10;97.10
52879;DHT22;38747;53.140;6.498;2023-11-19T13:40:09;12.10;97.50
52879;DHT22;38747;53.140;6.498;2023-11-19T13:42:40;12.10;98.70
52879;DHT22;38747;53.140;6.498;2023-11-19T13:45:10;12.00;99.60
52879;DHT22;38747;53.140;6.498;2023-11-19T13:47:39;12.00;98.30
52879;DHT22;38747;53.140;6.498;2023-11-19T13:50:08;12.00;98.80
52879;DHT22;38747;53.140;6.498;2023-11-19T13:52:34;12.00;99.30
52879;DHT22;38747;53.140;6.498;2023-11-19T13:55:00;12.00;99.00
52879;DHT22;38747;53.140;6.498;2023-11-19T13:57:26;11.90;99.90
52879;DHT22;38747;53.140;6.498;2023-11-19T13:59:51;11.90;99.90
52879;DHT22;38747;53.140;6.498;2023-11-19T14:02:17;11.90;99.90
52879;DHT22;38747;53.140;6.498;2023-11-19T14:04:42;11.90;99.90
52879;DHT22;38747;53.140;6.498;2023-11-19T14:07:08;11.90;99.90
52879;DHT22;38747;53.140;6.498;2023-11-19T14:09:34;11.90;99.90
52879;DHT22;38747;53.140;6.498;2023-11-19T14:11:59;11.90;99.90
52879;DHT22;38747;53.140;6.498;2023-11-19T14:14:25;11.90;99.90
52879;DHT22;38747;53.140;6.498;2023-11-19T14:16:50;11.90;99.90
52879;DHT22;38747;53.140;6.498;2023-11-19T14:19:16;11.90;99.90
52879;DHT22;38747;53.140;6.498;2023-11-19T14:21:42;11.90;99.90
52879;DHT22;38747;53.140;6.498;2023-11-19T14:24:08;11.90;99.90
52879;DHT22;38747;53.140;6.498;2023-11-19T14:26:33;11.90;99.90
52879;DHT22;38747;53.140;6.498;2023-11-19T14:28:59;11.80;99.90
52879;DHT22;38747;53.140;6.498;2023-11-19T14:31:28;11.80;99.90
52879;DHT22;38747;53.140;6.498;2023-11-19T14:33:54;11.80;99.90
52879;DHT22;38747;53.140;6.498;2023-11-19T14:36:19;11.80;99.90
52879;DHT22;38747;53.140;6.498;2023-11-19T14:38:45;11.80;99.90
52879;DHT22;38747;53.140;6.498;2023-11-19T14:41:11;11.80;99.90
52879;DHT22;38747;53.140;6.498;2023-11-19T14:43:39;11.70;99.90
52879;DHT22;38747;53.140;6.498;2023-11-19T14:46:05;11.60;99.90
52879;DHT22;38747;53.140;6.498;2023-11-19T14:48:32;11.60;99.90
52879;DHT22;38747;53.140;6.498;2023-11-19T14:50:57;11.50;99.90
52879;DHT22;38747;53.140;6.498;2023-11-19T14:53:23;11.50;99.90
52879;DHT22;38747;53.140;6.498;2023-11-19T14:55:49;11.40;99.90
52879;DHT22;38747;53.140;6.498;2023-11-19T14:58:14;11.40;99.90
52879;DHT22;38747;53.140;6.498;2023-11-19T15:00:40;11.40;99.90
52879;DHT22;38747;53.140;6.498;2023-11-19T15:03:05;11.40;99.90
52879;DHT22;38747;53.140;6.498;2023-11-19T15:05:31;11.40;99.90
52879;DHT22;38747;53.140;6.498;2023-11-19T15:07:57;11.40;99.90
52879;DHT22;38747;53.140;6.498;2023-11-19T15:10:23;11.40;99.90
52879;DHT22;38747;53.140;6.498;2023-11-19T15:12:50;11.40;99.90
52879;DHT22;38747;53.140;6.498;2023-11-19T15:15:15;11.40;99.90
52879;DHT22;38747;53.140;6.498;2023-11-19T15:17:41;11.40;99.90
52879;DHT22;38747;53.140;6.498;2023-11-19T15:20:07;11.40;99.90
52879;DHT22;38747;53.140;6.498;2023-11-19T15:22:33;11.40;99.90
52879;DHT22;38747;53.140;6.498;2023-11-19T15:24:59;11.40;99.90
52879;DHT22;38747;53.140;6.498;2023-11-19T15:27:24;11.40;99.90
52879;DHT22;38747;53.140;6.498;2023-11-19T15:29:50;11.40;99.90
52879;DHT22;38747;53.140;6.498;2023-11-19T15:32:15;11.40;99.90
52879;DHT22;38747;53.140;6.498;2023-11-19T15:34:41;11.40;99.90
52879;DHT22;38747;53.140;6.498;2023-11-19T15:37:10;11.40;99.90
52879;DHT22;38747;53.140;6.498;2023-11-19T15:39:38;11.40;99.90
52879;DHT22;38747;53.140;6.498;2023-11-19T15:42:04;11.40;99.90
52879;DHT22;38747;53.140;6.498;2023-11-19T15:44:29;11.40;99.90
52879;DHT22;38747;53.140;6.498;2023-11-19T15:46:55;11.40;99.90
52879;DHT22;38747;53.140;6.498;2023-11-19T15:49:21;11.30;99.90